Observations for BERGAMO ORIO SERIO, Italy (LIME)

LIME 180720Z 36004KT CAVOK 24/17 Q1017 NOSIG
LIME 180650Z 36005KT 300V040 9999 FEW100 23/18 Q1017 NOSIG  
LIME 180620Z 01006KT 9999 FEW060 SCT100 22/18 Q1016 NOSIG   
LIME 180550Z 35003KT 300V050 9999 SCT060 SCT090 21/17 Q1016 NOSIG   
LIME 180520Z 01007KT 9999 SCT050TCU SCT080 21/17 Q1017 NOSIG
LIME 180450Z 35004KT 320V020 9999 SCT060 SCT080 21/17 Q1017 NOSIG   
LIME 180420Z 36003KT 9999 BKN080 21/17 Q1016 NOSIG  
LIME 180350Z 36003KT 280V040 9999 BKN080 21/17 Q1017 NOSIG  
LIME 180320Z 36003KT 9999 BKN080 21/16 Q1016 TEMPO TSRA 
LIME 180250Z 07003KT 010V130 9999 SCT060 21/17 Q1016 TEMPO TSRA 
LIME 180220Z 04003KT 9999 SCT060 21/17 Q1016 TEMPO TSRA 
LIME 180150Z 02004KT 9999 SCT050 21/16 Q1016 NOSIG  
LIME 180120Z 36004KT 320V020 9999 SCT070 22/16 Q1016 NOSIG  
LIME 180050Z 01005KT FEW080 21/16 Q1016 NOSIG   
LIME 180020Z 02004KT 9999 FEW070 21/16 Q1016 NOSIG  
LIME 172350Z 02004KT 9999 FEW070 21/16 Q1016 NOSIG  
LIME 172320Z 02004KT CAVOK 21/16 Q1017 NOSIG
LIME 172250Z 01004KT CAVOK 21/17 Q1016 NOSIG
LIME 172220Z 02005KT 9999 SCT070 21/17 Q1016 NOSIG  
LIME 172150Z 03003KT 9999 SCT080 22/17 Q1016 NOSIG  
LIME 172120Z 01003KT 9999 SCT090 22/17 Q1016 NOSIG  
LIME 172050Z 04003KT CAVOK 22/17 Q1016 NOSIG
LIME 172020Z 01004KT 9999 FEW090 23/18 Q1015 NOSIG  
LIME 171950Z 03004KT 9999 FEW060 23/19 Q1015 NOSIG  
LIME 171920Z 09004KT 050V120 9999 FEW050 SCT090 25/17 Q1015 NOSIG   
LIME 171850Z 05006KT 9999 FEW040TCU SCT080 26/17 Q1015 NOSIG
LIME 171820Z 13006KT 9999 SCT040TCU 28/15 Q1014 NOSIG   
LIME 171750Z 14007KT 9999 SCT040TCU 28/15 Q1014 NOSIG   
LIME 171720Z 15007KT 120V190 9999 SCT050TCU 29/14 Q1014 NOSIG   
LIME 171650Z 10003KT 060V150 9999 FEW040TCU SCT050 30/14 Q1014 NOSIG
LIME 171620Z 06003KT 360V140 9999 FEW050 30/15 Q1014 NOSIG  
LIME 171550Z 07003KT 350V160 9999 SCT050 29/14 Q1014 NOSIG  
LIME 171520Z VRB03KT 9999 SCT050 30/13 Q1015 NOSIG  
LIME 171450Z 12006KT 080V170 9999 SCT050 30/14 Q1015 NOSIG  
LIME 171420Z 11005KT 070V160 9999 SCT050 30/14 Q1015 NOSIG  
LIME 171350Z VRB03KT 9999 SCT050 30/14 Q1015 NOSIG  
LIME 171320Z 14005KT 090V200 9999 SCT050 30/14 Q1016 NOSIG  
LIME 171250Z VRB03KT 9999 SCT050 28/15 Q1016 NOSIG  
LIME 171220Z VRB04KT 9999 SCT050 29/15 Q1016 NOSIG  
LIME 171150Z VRB04KT 9999 FEW050 29/15 Q1016 NOSIG  
LIME 171120Z VRB02KT 9999 FEW050 28/14 Q1017 NOSIG  
LIME 171050Z VRB04KT CAVOK 28/14 Q1017 NOSIG
LIME 171020Z 12007KT 060V200 CAVOK 28/14 Q1017 NOSIG
LIME 170950Z VRB06KT CAVOK 28/14 Q1017 NOSIG
LIME 170920Z 17005KT 090V230 CAVOK 27/13 Q1017 NOSIG
LIME 170820Z 26003KT 190V320 CAVOK 26/13 Q1017 NOSIG
LIME 170750Z 28003KT 180V350 CAVOK 26/13 Q1017 NOSIG
LIME 170720Z VRB02KT 9999 FEW080 25/13 Q1017 NOSIG  
LIME 170650Z 01003KT 340V040 9999 FEW080 24/14 Q1017 NOSIG